This is the latest recevied weather packets stored in our database for station/object KC5TIL-3. If no packets are shown the sender has not sent any weather packets the latest 10 day(s).
| Time | Temp. | Humidity | Pressure | Rain* | Wind** | Luminosity | Snow |
|---|---|---|---|---|---|---|---|
| 1787853279 | 35.56° C | 16% | 1012.8 hPa | 0 mm | 2.24 m/s, 323° | - | - |
| 1787852975 | 35° C | 17% | 1012.8 hPa | 0 mm | 3.13 m/s, 7° | - | - |
| 1787852676 | 35° C | 17% | 1013.8 hPa | 0 mm | 4.02 m/s, 13° | - | - |
| 1787852375 | 34.44° C | 18% | 1013.8 hPa | 0 mm | 3.13 m/s, 23° | - | - |
| 1787852077 | 35.56° C | 17% | 1013.8 hPa | 0 mm | 2.24 m/s, 337° | - | - |
| 1787851773 | 35° C | 17% | 1013.8 hPa | 0 mm | 3.13 m/s, 2° | - | - |
| 1787851472 | 34.44° C | 17% | 1013.8 hPa | 0 mm | 3.13 m/s, 18° | - | - |
| 1787851169 | 34.44° C | 18% | 1013.8 hPa | 0 mm | 4.02 m/s, 12° | - | - |
| 1787850871 | 34.44° C | 18% | 1013.8 hPa | 0 mm | 1.79 m/s, 24° | - | - |
| 1787850565 | 34.44° C | 18% | 1013.8 hPa | 0 mm | 4.47 m/s, 19° | - | - |
| 1787850267 | 34.44° C | 18% | 1013.8 hPa | 0 mm | 3.13 m/s, 44° | - | - |
| 1787849969 | 33.89° C | 18% | 1013.8 hPa | 0 mm | 4.47 m/s, 26° | - | - |
| 1787849667 | 34.44° C | 19% | 1013.8 hPa | 0 mm | 1.79 m/s, 334° | - | - |
| 1787849369 | 33.89° C | 20% | 1013.8 hPa | 0 mm | 3.58 m/s, 40° | - | - |
| 1787849071 | 33.33° C | 20% | 1013.8 hPa | 0 mm | 1.79 m/s, 11° | - | - |
| 1787848769 | 34.44° C | 21% | 1013.8 hPa | 0 mm | 3.13 m/s, 311° | - | - |
| 1787848471 | 34.44° C | 21% | 1013.8 hPa | 0 mm | 1.79 m/s, 124° | - | - |
| 1787848173 | 33.89° C | 23% | 1013.8 hPa | 0 mm | 1.79 m/s, 125° | - | - |
| 1787847872 | 33.33° C | 23% | 1013.8 hPa | 0 mm | 3.13 m/s, 103° | - | - |
| 1787847574 | 33.33° C | 23% | 1013.8 hPa | 0 mm | 2.24 m/s, 328° | - | - |
| 1787847275 | 32.78° C | 23% | 1013.8 hPa | 0 mm | 2.24 m/s, 25° | - | - |
| 1787846969 | 32.78° C | 23% | 1013.8 hPa | 0 mm | 1.34 m/s, 22° | - | - |
| 1787846671 | 32.78° C | 22% | 1013.8 hPa | 0 mm | 2.68 m/s, 27° | - | - |
| 1787846373 | 33.33° C | 24% | 1013.8 hPa | 0 mm | 1.34 m/s, 279° | - | - |
| 1787846072 | 33.33° C | 25% | 1013.8 hPa | 0 mm | 1.79 m/s, 299° | - | - |
* Rain latest hour (hover to see other rain measurements)
** Current wind speed in m/s (hover to see current wind gust speed)